createdAt,value
2022-12-14T00:00:20.244Z,8.93
2022-12-14T00:03:07.841Z,9.20
2022-12-14T00:05:54.843Z,10.07
2022-12-14T00:08:53.039Z,9.48
2022-12-14T00:11:42.981Z,9.07
2022-12-14T00:14:30.053Z,8.90
2022-12-14T00:17:16.940Z,9.30
2022-12-14T00:20:04.280Z,9.23
2022-12-14T00:22:55.279Z,8.85
2022-12-14T00:25:42.309Z,8.90
2022-12-14T00:28:31.863Z,9.18
2022-12-14T00:31:19.444Z,9.30
2022-12-14T00:34:06.531Z,9.38
2022-12-14T00:36:56.159Z,8.30
2022-12-14T00:39:42.916Z,9.32
2022-12-14T00:42:31.911Z,9.30
2022-12-14T00:45:19.730Z,9.25
2022-12-14T00:48:06.723Z,8.57
2022-12-14T00:50:55.113Z,8.57
2022-12-14T00:53:43.735Z,9.30
2022-12-14T00:56:30.574Z,9.30
2022-12-14T00:59:26.963Z,9.13
2022-12-14T01:02:14.508Z,9.10
2022-12-14T01:05:01.555Z,8.77
2022-12-14T01:08:01.087Z,9.18
2022-12-14T01:10:48.034Z,9.40
2022-12-14T01:13:35.174Z,8.68
2022-12-14T01:16:22.052Z,9.35
2022-12-14T01:19:08.931Z,8.70
2022-12-14T01:21:55.748Z,8.52
2022-12-14T01:24:44.483Z,8.65
2022-12-14T01:27:34.521Z,9.23
2022-12-14T01:30:23.936Z,8.60
2022-12-14T01:36:08.093Z,9.68
2022-12-14T01:38:57.022Z,9.45
2022-12-14T01:41:47.274Z,8.68
2022-12-14T01:44:36.811Z,8.63
2022-12-14T01:47:43.919Z,8.75
2022-12-14T01:50:45.264Z,8.85
2022-12-14T01:53:32.230Z,8.00
2022-12-14T01:56:20.544Z,8.95
2022-12-14T01:59:14.971Z,8.15
2022-12-14T02:02:07.740Z,9.10
2022-12-14T02:04:58.028Z,8.25
2022-12-14T02:07:58.898Z,8.38
2022-12-14T02:10:46.432Z,7.97
2022-12-14T02:13:35.523Z,8.77
2022-12-14T02:16:22.500Z,7.93
2022-12-14T02:19:09.782Z,8.20
2022-12-14T02:22:24.787Z,7.85
2022-12-14T02:25:22.271Z,7.97
2022-12-14T02:28:27.872Z,8.45
2022-12-14T02:31:24.984Z,8.73
2022-12-14T02:34:30.881Z,8.50
2022-12-14T02:37:24.326Z,8.10
2022-12-14T02:40:19.591Z,8.35
2022-12-14T02:43:24.463Z,8.07
2022-12-14T02:46:33.299Z,8.35
2022-12-14T02:49:20.123Z,8.75
2022-12-14T02:52:08.583Z,8.80
2022-12-14T02:54:59.628Z,8.25
2022-12-14T02:58:00.882Z,8.93
2022-12-14T03:00:50.495Z,7.95
2022-12-14T03:03:40.405Z,8.63
2022-12-14T03:06:27.476Z,7.70
2022-12-14T03:09:17.391Z,7.47
2022-12-14T03:12:10.890Z,7.97
2022-12-14T03:15:01.295Z,7.93
2022-12-14T03:17:52.000Z,7.53
2022-12-14T03:20:42.551Z,7.38
2022-12-14T03:23:35.219Z,7.75
2022-12-14T03:26:26.344Z,7.68
2022-12-14T03:29:23.456Z,9.02
2022-12-14T03:32:12.638Z,8.02
2022-12-14T03:35:17.007Z,7.43
2022-12-14T03:38:06.938Z,7.72
2022-12-14T03:41:17.116Z,7.82
2022-12-14T03:44:50.013Z,7.47
2022-12-14T03:47:58.732Z,7.55
2022-12-14T03:51:07.606Z,7.70
2022-12-14T03:54:12.858Z,7.63
2022-12-14T03:57:05.767Z,7.95
2022-12-14T04:00:06.943Z,7.80
2022-12-14T04:03:01.493Z,7.30
2022-12-14T04:06:20.719Z,7.72
2022-12-14T04:12:21.754Z,8.02
2022-12-14T04:15:33.161Z,7.53
2022-12-14T04:18:45.206Z,7.60
2022-12-14T04:21:39.193Z,7.72
2022-12-14T04:25:17.908Z,8.00
2022-12-14T04:28:32.280Z,6.90
2022-12-14T04:31:30.920Z,8.32
2022-12-14T04:34:21.350Z,7.60
2022-12-14T04:37:11.014Z,6.95
2022-12-14T04:40:21.162Z,7.68
2022-12-14T04:43:18.571Z,7.63
2022-12-14T04:46:08.838Z,7.72
2022-12-14T04:49:01.383Z,7.03
2022-12-14T04:52:27.677Z,8.20
2022-12-14T04:55:29.642Z,7.38
2022-12-14T04:58:21.866Z,6.38
2022-12-14T05:01:35.655Z,7.20
2022-12-14T05:04:25.629Z,7.45
2022-12-14T05:07:21.060Z,7.28
2022-12-14T05:10:20.439Z,7.03
2022-12-14T05:13:15.366Z,7.40
2022-12-14T05:16:02.669Z,7.72
2022-12-14T05:18:49.999Z,8.02
2022-12-14T05:21:48.972Z,7.32
2022-12-14T05:24:39.112Z,7.88
2022-12-14T05:27:28.830Z,7.40
2022-12-14T05:30:21.005Z,6.90
2022-12-14T05:33:16.522Z,6.93
2022-12-14T05:36:03.457Z,6.97
2022-12-14T05:38:51.693Z,8.15
2022-12-14T05:41:41.691Z,7.45
2022-12-14T05:44:28.518Z,7.60
2022-12-14T05:47:15.569Z,6.82
2022-12-14T05:50:02.536Z,7.00
2022-12-14T05:52:51.864Z,7.85
2022-12-14T05:58:29.149Z,7.50
2022-12-14T06:01:19.350Z,7.65
2022-12-14T06:04:06.800Z,6.32
2022-12-14T06:06:53.632Z,6.75
2022-12-14T06:09:40.438Z,7.07
2022-12-14T06:12:27.276Z,7.10
2022-12-14T06:15:14.163Z,7.63
2022-12-14T06:18:01.019Z,7.20
2022-12-14T06:20:47.990Z,6.97
2022-12-14T06:23:40.517Z,6.97
2022-12-14T06:26:28.533Z,7.80
2022-12-14T06:29:20.607Z,7.22
2022-12-14T06:32:07.463Z,7.22
2022-12-14T06:35:00.202Z,8.15
2022-12-14T06:37:48.890Z,8.18
2022-12-14T06:40:35.856Z,9.27
2022-12-14T06:43:25.704Z,9.45
2022-12-14T06:46:16.092Z,10.40
2022-12-14T06:49:04.892Z,10.23
2022-12-14T06:51:51.670Z,9.15
2022-12-14T06:54:38.443Z,9.88
2022-12-14T06:57:28.209Z,9.32
2022-12-14T07:00:15.127Z,10.18
2022-12-14T07:03:02.038Z,10.20
2022-12-14T07:05:51.467Z,9.23
2022-12-14T07:11:27.048Z,9.77
2022-12-14T07:14:17.309Z,9.97
2022-12-14T07:17:04.090Z,9.70
2022-12-14T07:19:53.244Z,9.30
2022-12-14T07:22:40.969Z,10.40
2022-12-14T07:25:27.861Z,9.52
2022-12-14T07:28:15.219Z,10.07
2022-12-14T07:31:02.998Z,10.48
2022-12-14T07:33:52.847Z,9.32
2022-12-14T07:36:40.045Z,10.10
2022-12-14T07:39:27.036Z,9.65
2022-12-14T07:42:13.977Z,8.93
2022-12-14T07:45:01.281Z,11.25
2022-12-14T07:47:48.362Z,9.48
2022-12-14T07:50:39.828Z,9.02
2022-12-14T07:53:27.111Z,10.05
2022-12-14T07:56:22.890Z,9.85
2022-12-14T07:59:19.388Z,9.43
2022-12-14T08:02:06.384Z,9.75
2022-12-14T08:04:56.666Z,9.88
2022-12-14T08:07:43.948Z,10.27
2022-12-14T08:10:34.392Z,9.77
2022-12-14T08:13:24.155Z,10.07
2022-12-14T08:16:15.107Z,10.13
2022-12-14T08:19:04.470Z,9.68
2022-12-14T08:24:41.611Z,9.73
2022-12-14T08:27:31.351Z,9.45
2022-12-14T08:30:18.486Z,10.68
2022-12-14T08:33:05.762Z,9.80
2022-12-14T08:35:52.709Z,10.02
2022-12-14T08:38:43.025Z,9.68
2022-12-14T08:41:30.482Z,10.38
2022-12-14T08:44:18.314Z,10.27
2022-12-14T08:47:06.089Z,10.32
2022-12-14T08:49:54.515Z,10.02
2022-12-14T08:52:41.561Z,11.00
2022-12-14T08:55:35.195Z,10.13
2022-12-14T08:58:26.356Z,10.32
2022-12-14T09:01:28.338Z,10.80
2022-12-14T09:04:19.073Z,10.55
2022-12-14T09:07:09.199Z,10.60
2022-12-14T09:09:56.750Z,10.80
2022-12-14T09:12:43.829Z,11.48
2022-12-14T09:15:30.980Z,10.70
2022-12-14T09:18:17.917Z,10.60
2022-12-14T09:21:06.306Z,10.57
2022-12-14T09:23:58.947Z,11.23
2022-12-14T09:26:47.360Z,11.15
2022-12-14T09:29:34.650Z,11.13
2022-12-14T09:32:24.802Z,10.93
2022-12-14T09:35:12.086Z,9.57
2022-12-14T09:38:01.764Z,10.57
2022-12-14T09:40:56.242Z,10.90
2022-12-14T09:43:51.148Z,10.82
2022-12-14T09:46:45.441Z,10.60
2022-12-14T09:49:45.885Z,10.27
2022-12-14T09:52:42.509Z,10.45
2022-12-14T09:55:32.816Z,10.95
2022-12-14T09:58:26.893Z,11.00
2022-12-14T10:01:23.356Z,10.35
2022-12-14T10:04:39.549Z,10.18
2022-12-14T10:07:34.174Z,10.40
2022-12-14T10:10:31.914Z,10.48
2022-12-14T10:13:46.981Z,9.77
2022-12-14T10:16:51.990Z,10.88
2022-12-14T10:19:59.587Z,9.77
2022-12-14T10:30:53.686Z,10.23
2022-12-14T10:45:42.169Z,9.93
2022-12-14T10:49:28.559Z,10.68
2022-12-14T10:53:08.617Z,10.50
2022-12-14T10:56:29.781Z,9.68
2022-12-14T11:00:34.195Z,11.02
2022-12-14T11:15:25.124Z,9.80
2022-12-14T11:22:33.024Z,10.63
2022-12-14T11:32:57.598Z,9.70
2022-12-14T11:36:47.000Z,9.95
2022-12-14T11:39:40.273Z,10.50
2022-12-14T11:46:52.120Z,9.93
2022-12-14T11:49:53.480Z,9.75
2022-12-14T11:53:00.605Z,9.70
2022-12-14T11:56:17.116Z,9.93
2022-12-14T12:00:15.814Z,10.38
2022-12-14T12:03:48.587Z,10.50
2022-12-14T12:06:49.865Z,10.10
2022-12-14T12:09:53.484Z,11.23
2022-12-14T12:13:10.289Z,11.95
2022-12-14T12:19:37.026Z,11.75
2022-12-14T12:22:28.492Z,12.38
2022-12-14T12:25:29.587Z,12.32
2022-12-14T12:28:27.652Z,11.32
2022-12-14T12:31:39.567Z,11.98
2022-12-14T12:34:40.289Z,11.57
2022-12-14T12:37:53.679Z,11.45
2022-12-14T12:40:59.091Z,12.20
2022-12-14T12:44:17.404Z,11.20
2022-12-14T12:47:48.336Z,12.93
2022-12-14T12:50:57.132Z,11.90
2022-12-14T12:57:24.102Z,11.98
2022-12-14T13:00:27.869Z,11.95
2022-12-14T13:03:46.393Z,12.48
2022-12-14T13:07:01.063Z,11.50
2022-12-14T13:13:48.208Z,11.82
2022-12-14T13:17:04.954Z,12.15
2022-12-14T13:20:04.291Z,11.43
2022-12-14T13:26:59.386Z,11.65
2022-12-14T13:30:34.062Z,11.68
2022-12-14T13:34:42.186Z,11.73
2022-12-14T13:38:27.656Z,11.97
2022-12-14T13:41:32.259Z,12.13
2022-12-14T13:45:01.572Z,11.57
2022-12-14T13:51:02.221Z,12.48
2022-12-14T13:54:09.709Z,12.32
2022-12-14T13:57:33.162Z,11.95
2022-12-14T14:00:55.029Z,11.52
2022-12-14T14:04:02.304Z,11.20
2022-12-14T14:07:01.725Z,10.57
2022-12-14T14:16:28.731Z,12.43
2022-12-14T14:19:43.063Z,13.05
2022-12-14T14:22:42.940Z,11.48
2022-12-14T14:26:20.520Z,12.77
2022-12-14T14:29:29.517Z,11.65
2022-12-14T14:33:43.855Z,12.30
2022-12-14T14:36:25.475Z,12.52
2022-12-14T14:40:02.339Z,11.63
2022-12-14T14:46:56.958Z,13.48
2022-12-14T14:50:05.043Z,13.70
2022-12-14T14:53:23.083Z,12.23
2022-12-14T14:56:42.982Z,12.63
2022-12-14T14:59:50.816Z,12.73
2022-12-14T15:02:51.769Z,13.48
2022-12-14T15:05:52.651Z,12.43
2022-12-14T15:08:47.489Z,12.20
2022-12-14T15:12:20.739Z,12.75
2022-12-14T15:15:52.113Z,12.32
2022-12-14T15:18:52.337Z,12.52
2022-12-14T15:22:02.249Z,14.02
2022-12-14T15:25:33.266Z,13.40
2022-12-14T15:32:16.630Z,12.15
2022-12-14T15:35:20.210Z,13.05
2022-12-14T15:38:26.766Z,12.75
2022-12-14T15:41:44.424Z,13.05
2022-12-14T15:44:49.017Z,12.85
2022-12-14T15:48:09.182Z,13.15
2022-12-14T15:51:12.030Z,12.52
2022-12-14T15:53:59.810Z,13.18
2022-12-14T15:57:02.725Z,13.88
2022-12-14T15:59:52.176Z,12.82
2022-12-14T16:02:47.278Z,12.77
2022-12-14T16:05:36.028Z,12.40
2022-12-14T16:08:23.366Z,12.50
2022-12-14T16:11:30.463Z,13.32
2022-12-14T16:14:25.680Z,13.65
2022-12-14T16:17:14.285Z,13.82
2022-12-14T16:20:17.990Z,13.38
2022-12-14T16:23:14.272Z,12.95
2022-12-14T16:26:21.996Z,13.70
2022-12-14T16:29:26.539Z,13.75
2022-12-14T16:32:24.452Z,13.00
2022-12-14T16:35:25.274Z,15.35
2022-12-14T16:38:16.105Z,13.23
2022-12-14T16:41:06.283Z,13.15
2022-12-14T16:43:58.396Z,13.98
2022-12-14T16:47:02.769Z,14.00
2022-12-14T16:49:50.142Z,14.05
2022-12-14T16:52:37.186Z,14.85
2022-12-14T16:55:26.391Z,15.20
2022-12-14T16:58:16.363Z,15.65
2022-12-14T17:01:06.880Z,15.13
2022-12-14T17:04:04.179Z,14.30
2022-12-14T17:06:55.708Z,15.32
2022-12-14T17:09:42.618Z,15.30
2022-12-14T17:12:29.600Z,13.77
2022-12-14T17:15:20.368Z,15.32
2022-12-14T17:18:08.486Z,14.57
2022-12-14T17:21:16.916Z,14.73
2022-12-14T17:45:23.541Z,16.30
2022-12-14T17:48:37.496Z,16.58
2022-12-14T17:51:42.095Z,17.73
2022-12-14T17:54:54.663Z,15.02
2022-12-14T17:58:28.208Z,17.00
2022-12-14T18:10:09.992Z,16.42
2022-12-14T18:13:04.528Z,16.05
2022-12-14T18:16:28.097Z,17.50
2022-12-14T18:19:16.386Z,17.55
2022-12-14T18:22:13.085Z,16.52
2022-12-14T18:25:06.593Z,17.58
2022-12-14T18:27:53.533Z,18.00
2022-12-14T18:30:49.197Z,31.38
2022-12-14T18:33:36.990Z,38.90
2022-12-14T18:36:34.004Z,27.42
2022-12-14T18:39:23.344Z,26.98
2022-12-14T18:45:00.587Z,26.88
2022-12-14T18:47:56.149Z,26.60
2022-12-14T18:50:43.654Z,26.08
2022-12-14T18:53:37.146Z,23.40
2022-12-14T18:56:25.381Z,22.52
2022-12-14T18:59:15.364Z,25.30
2022-12-14T19:02:25.344Z,24.75
2022-12-14T19:05:17.337Z,24.85
2022-12-14T19:08:08.837Z,26.73
2022-12-14T19:11:01.961Z,26.42
2022-12-14T19:14:03.290Z,25.70
2022-12-14T19:16:52.824Z,28.73
2022-12-14T19:19:44.403Z,23.95
2022-12-14T19:23:00.681Z,23.05
2022-12-14T19:26:05.779Z,25.73
2022-12-14T19:32:24.892Z,24.98
2022-12-14T19:35:15.143Z,23.15
2022-12-14T19:41:59.933Z,22.20
2022-12-14T19:47:55.437Z,24.02
2022-12-14T19:51:18.732Z,24.27
2022-12-14T19:54:40.967Z,22.50
2022-12-14T19:57:32.450Z,21.17
2022-12-14T20:00:27.512Z,23.85
2022-12-14T20:03:25.023Z,21.55
2022-12-14T20:10:28.446Z,21.63
2022-12-14T20:16:29.124Z,20.42
2022-12-14T20:16:31.196Z,21.08
2022-12-14T20:19:44.199Z,20.83
2022-12-14T20:22:57.881Z,21.65
2022-12-14T20:26:04.014Z,19.80
2022-12-14T20:29:06.374Z,20.85
2022-12-14T20:32:11.613Z,21.75
2022-12-14T20:35:20.959Z,20.85
2022-12-14T20:41:12.593Z,19.80
2022-12-14T20:44:08.051Z,19.50
2022-12-14T20:46:55.381Z,17.83
2022-12-14T20:49:53.420Z,20.33
2022-12-14T20:52:45.876Z,20.52
2022-12-14T20:55:45.115Z,18.08
2022-12-14T20:58:42.295Z,18.67
2022-12-14T21:01:32.224Z,18.30
2022-12-14T21:04:19.249Z,18.70
2022-12-14T21:07:22.905Z,17.40
2022-12-14T21:10:15.586Z,17.40
2022-12-14T21:13:08.548Z,17.35
2022-12-14T21:16:05.223Z,17.92
2022-12-14T21:18:56.593Z,17.75
2022-12-14T21:21:53.496Z,16.70
2022-12-14T21:25:02.222Z,16.55
2022-12-14T21:27:57.115Z,16.73
2022-12-14T21:30:47.339Z,16.75
2022-12-14T21:34:14.903Z,17.05
2022-12-14T21:37:38.943Z,16.52
2022-12-14T21:40:45.708Z,17.08
2022-12-14T21:43:38.691Z,16.90
2022-12-14T21:46:34.259Z,16.17
2022-12-14T21:49:41.787Z,16.45
2022-12-14T21:52:32.719Z,16.25
2022-12-14T21:55:21.954Z,17.50
2022-12-14T21:58:20.995Z,16.02
2022-12-14T22:01:19.894Z,16.67
2022-12-14T22:04:09.996Z,15.25
2022-12-14T22:06:58.124Z,15.52
2022-12-14T22:09:51.039Z,16.00
2022-12-14T22:12:43.862Z,18.35
2022-12-14T22:15:42.944Z,15.32
2022-12-14T22:18:42.738Z,16.50
2022-12-14T22:21:29.767Z,17.30
2022-12-14T22:24:17.443Z,15.93
2022-12-14T22:27:17.551Z,15.60
2022-12-14T22:30:05.498Z,15.88
2022-12-14T22:32:58.951Z,15.65
2022-12-14T22:35:47.211Z,15.85
2022-12-14T22:38:34.238Z,15.15
2022-12-14T22:41:21.132Z,15.27
2022-12-14T22:44:08.438Z,14.55
2022-12-14T22:47:09.543Z,14.15
2022-12-14T22:49:56.557Z,15.20
2022-12-14T22:52:43.550Z,14.27
2022-12-14T22:55:37.814Z,13.40
2022-12-14T22:58:26.688Z,13.38
2022-12-14T23:01:16.014Z,14.05
2022-12-14T23:06:53.138Z,14.35
2022-12-14T23:10:08.799Z,15.07
2022-12-14T23:13:14.282Z,13.23
2022-12-14T23:16:20.012Z,14.13
2022-12-14T23:19:29.951Z,13.20
2022-12-14T23:22:40.506Z,14.02
2022-12-14T23:25:45.919Z,13.27
2022-12-14T23:28:51.645Z,15.32
2022-12-14T23:31:58.462Z,12.45
2022-12-14T23:35:03.910Z,13.07
2022-12-14T23:38:15.024Z,15.23
2022-12-14T23:41:22.532Z,12.95
2022-12-14T23:44:28.155Z,13.20
2022-12-14T23:47:33.552Z,13.27
2022-12-14T23:50:39.582Z,13.75
2022-12-14T23:53:50.025Z,12.05
2022-12-14T23:56:56.071Z,12.98
